Time;durP1;ratioP1;P1;durP2;ratioP2;P2;SDS_P1;SDS_P2;PMS_P1;PMS_P2;Temp;Humidity;BMP_temperature;BMP_pressure;BME280_temperature;BME280_humidity;BME280_pressure;Samples;Min_cycle;Max_cycle;Signal;HPM_P1;HPM_P2
2023/01/28 00:01:48;;;;;;;11.13;9.57;;;6.40;99.90;;;;;;5067125;28;20203;-32
2023/01/28 00:04:18;;;;;;;10.47;9.43;;;6.40;99.90;;;;;;5066001;28;20323;-32
2023/01/28 00:06:45;;;;;;;9.50;8.43;;;6.40;99.90;;;;;;5065313;28;20200;-32
2023/01/28 00:09:17;;;;;;;9.40;8.40;;;6.30;99.90;;;;;;5065812;28;20253;-32
2023/01/28 00:11:47;;;;;;;8.93;8.03;;;6.30;99.90;;;;;;5065554;28;20218;-32
2023/01/28 00:14:14;;;;;;;9.37;8.37;;;6.30;99.90;;;;;;5064441;28;20717;-32
2023/01/28 00:16:41;;;;;;;8.90;7.90;;;6.20;99.90;;;;;;5065941;28;20561;-32
2023/01/28 00:19:13;;;;;;;8.40;7.60;;;6.20;99.90;;;;;;5064486;28;20204;-32
2023/01/28 00:21:45;;;;;;;9.13;8.23;;;6.20;99.90;;;;;;5065255;28;20591;-32
2023/01/28 00:24:12;;;;;;;9.30;7.87;;;6.20;99.90;;;;;;5039843;28;20251;-32
2023/01/28 00:26:42;;;;;;;8.70;7.80;;;6.10;99.90;;;;;;5046538;28;20200;-31
2023/01/28 00:29:15;;;;;;;8.60;7.73;;;6.10;99.90;;;;;;5060193;28;20721;-32
2023/01/28 00:31:42;;;;;;;7.90;7.10;;;6.10;99.90;;;;;;5044873;28;20215;-32
2023/01/28 00:34:11;;;;;;;8.30;7.50;;;6.10;99.90;;;;;;5050704;28;20678;-32
2023/01/28 00:36:41;;;;;;;7.80;7.00;;;6.10;99.90;;;;;;5065547;28;20273;-32
2023/01/28 00:39:13;;;;;;;7.87;7.07;;;6.10;99.90;;;;;;5063147;28;20203;-32
2023/01/28 00:41:45;;;;;;;8.57;7.67;;;6.10;99.90;;;;;;5064430;28;20211;-32
2023/01/28 00:44:14;;;;;;;7.83;7.03;;;6.20;99.90;;;;;;5066333;28;20560;-32
2023/01/28 00:46:41;;;;;;;8.90;8.00;;;6.20;99.90;;;;;;5064831;28;20311;-32
2023/01/28 00:49:09;;;;;;;7.83;7.00;;;6.20;99.90;;;;;;5063938;28;20256;-32
2023/01/28 00:51:38;;;;;;;9.13;7.77;;;6.20;99.90;;;;;;5063066;28;20318;-32
2023/01/28 00:54:05;;;;;;;9.43;8.13;;;6.20;99.90;;;;;;5050127;28;20212;-32
2023/01/28 00:56:37;;;;;;;8.13;7.30;;;6.20;99.90;;;;;;5027998;28;20215;-32
2023/01/28 00:59:05;;;;;;;8.50;7.60;;;6.30;99.90;;;;;;5044861;28;20219;-32
2023/01/28 01:01:34;;;;;;;8.97;8.07;;;6.20;99.90;;;;;;5063613;28;20469;-32
2023/01/28 01:04:04;;;;;;;8.93;7.73;;;6.20;99.90;;;;;;5063936;28;20318;-32
2023/01/28 01:06:39;;;;;;;10.37;9.27;;;6.20;99.90;;;;;;5046647;28;20273;-32
2023/01/28 01:09:10;;;;;;;10.40;9.30;;;6.20;99.90;;;;;;5064797;28;20199;-32
2023/01/28 01:11:40;;;;;;;10.60;9.50;;;6.20;99.90;;;;;;5062863;28;20207;-32
2023/01/28 01:14:09;;;;;;;10.07;9.07;;;6.10;99.90;;;;;;5066069;28;20247;-32
2023/01/28 01:16:37;;;;;;;10.47;9.33;;;6.10;99.90;;;;;;5064686;28;20208;-32
2023/01/28 01:19:07;;;;;;;10.63;9.53;;;6.10;99.90;;;;;;5061312;28;20662;-32
2023/01/28 01:21:35;;;;;;;10.80;9.70;;;6.10;99.90;;;;;;5062555;28;20585;-32
2023/01/28 01:24:02;;;;;;;11.07;9.97;;;6.10;99.90;;;;;;5063872;28;20255;-32
2023/01/28 01:26:32;;;;;;;12.20;11.00;;;6.10;99.90;;;;;;5043162;28;20862;-32
2023/01/28 01:28:59;;;;;;;11.03;9.93;;;6.10;99.90;;;;;;5061599;28;20212;-32
2023/01/28 01:31:26;;;;;;;11.70;10.50;;;6.10;99.90;;;;;;5045487;28;20694;-32
2023/01/28 01:33:58;;;;;;;12.23;11.00;;;6.10;99.90;;;;;;5063221;28;20242;-32
2023/01/28 01:36:28;;;;;;;12.53;11.00;;;6.10;99.90;;;;;;5062719;28;20195;-32
2023/01/28 01:38:57;;;;;;;12.37;11.07;;;6.10;99.90;;;;;;5064922;28;20625;-32
2023/01/28 01:41:28;;;;;;;14.00;12.50;;;6.10;99.90;;;;;;5063150;28;20697;-32
2023/01/28 01:44:01;;;;;;;13.27;11.73;;;6.00;99.90;;;;;;5061738;28;20609;-32
2023/01/28 01:46:49;;;;;;;13.47;12.07;;;6.00;99.90;;;;;;5064520;28;20245;-32
2023/01/28 01:49:21;;;;;;;13.17;11.77;;;6.00;99.90;;;;;;5063683;28;20387;-33
2023/01/28 01:51:51;;;;;;;13.73;11.73;;;6.00;99.90;;;;;;5063928;28;20620;-32
2023/01/28 01:54:23;;;;;;;13.50;11.50;;;6.00;99.90;;;;;;5062395;28;20670;-32
2023/01/28 01:56:56;;;;;;;14.13;12.63;;;6.00;99.90;;;;;;5078320;28;20331;-32
2023/01/28 01:59:29;;;;;;;14.27;11.33;;;6.00;99.90;;;;;;5052152;28;20211;-32
2023/01/28 02:02:00;;;;;;;13.53;12.13;;;6.10;99.90;;;;;;5051987;28;20302;-32
2023/01/28 02:04:34;;;;;;;13.50;11.77;;;6.10;99.90;;;;;;5051711;28;20259;-32
2023/01/28 02:07:05;;;;;;;13.30;11.90;;;6.10;99.90;;;;;;5058080;28;20199;-32
2023/01/28 02:09:37;;;;;;;12.57;11.27;;;6.10;99.90;;;;;;5054543;28;20207;-32
2023/01/28 02:12:21;;;;;;;12.43;11.13;;;6.10;99.90;;;;;;5061805;28;20213;-32
2023/01/28 02:14:54;;;;;;;14.53;11.70;;;6.10;99.90;;;;;;5059640;28;20235;-32
2023/01/28 02:17:21;;;;;;;13.97;11.90;;;6.10;99.90;;;;;;5063837;28;20257;-32
2023/01/28 02:20:12;;;;;;;13.07;11.67;;;6.10;99.90;;;;;;5039548;28;20212;-32
2023/01/28 02:23:04;;;;;;;13.33;11.67;;;6.10;99.90;;;;;;5063238;28;20215;-32
2023/01/28 02:26:02;;;;;;;14.03;11.67;;;6.10;99.90;;;;;;5061751;28;20235;-32
2023/01/28 02:28:50;;;;;;;14.37;12.00;;;6.10;99.90;;;;;;5061379;28;20203;-32
2023/01/28 02:31:51;;;;;;;13.17;11.53;;;6.10;99.90;;;;;;5063398;28;20416;-32
2023/01/28 02:34:27;;;;;;;13.00;11.50;;;6.20;99.90;;;;;;5064492;28;20200;-32
2023/01/28 02:37:03;;;;;;;12.93;11.20;;;6.20;99.90;;;;;;5066417;28;20718;-32
2023/01/28 02:39:35;;;;;;;15.47;11.63;;;6.20;99.90;;;;;;5066584;28;20219;-32
2023/01/28 02:42:28;;;;;;;14.87;11.53;;;6.20;99.90;;;;;;5067417;28;20681;-32
2023/01/28 02:44:55;;;;;;;13.67;11.87;;;6.10;99.90;;;;;;5066423;28;20227;-32
2023/01/28 02:50:19;;;;;;;13.50;11.47;;;6.20;99.90;;;;;;5066959;28;20227;-32
2023/01/28 02:56:19;;;;;;;14.13;12.00;;;6.10;99.90;;;;;;5067881;28;20219;-32
2023/01/28 03:02:24;;;;;;;15.60;12.40;;;6.10;99.90;;;;;;5048176;28;20204;-32
2023/01/28 03:05:02;;;;;;;15.63;12.90;;;6.00;99.90;;;;;;5047488;28;20351;-32
2023/01/28 03:07:33;;;;;;;15.33;12.03;;;5.90;99.90;;;;;;5054011;28;20208;-32
2023/01/28 03:10:05;;;;;;;15.50;12.10;;;5.90;99.90;;;;;;5062507;28;20204;-32
2023/01/28 03:39:03;;;;;;;15.27;11.90;;;5.70;99.90;;;;;;5067243;28;20203;-32
2023/01/28 03:41:33;;;;;;;13.37;11.30;;;5.70;99.90;;;;;;5047261;28;20239;-32
2023/01/28 03:46:51;;;;;;;14.33;11.80;;;5.80;99.90;;;;;;5065973;28;20222;-32
2023/01/28 03:49:23;;;;;;;15.23;11.80;;;5.80;99.90;;;;;;5081579;28;20227;-32
2023/01/28 03:51:52;;;;;;;14.93;11.87;;;5.80;99.90;;;;;;5064932;28;20667;-32
2023/01/28 03:54:19;;;;;;;13.73;10.93;;;5.80;99.90;;;;;;5065404;28;20199;-32
2023/01/28 03:56:47;;;;;;;15.80;11.73;;;5.70;99.90;;;;;;5038106;28;20825;-32
2023/01/28 03:59:16;;;;;;;15.37;11.30;;;5.70;99.90;;;;;;5049018;28;20223;-32
2023/01/28 04:01:43;;;;;;;12.87;10.53;;;5.60;99.90;;;;;;5064009;28;20257;-32
2023/01/28 04:04:22;;;;;;;15.73;11.57;;;5.60;99.90;;;;;;5044744;28;20295;-32
2023/01/28 04:06:52;;;;;;;15.87;11.30;;;5.60;99.90;;;;;;5064792;28;20730;-32
2023/01/28 04:09:21;;;;;;;13.10;10.33;;;5.60;99.90;;;;;;5066201;28;20282;-32
2023/01/28 04:11:49;;;;;;;13.50;10.77;;;5.60;99.90;;;;;;5066811;28;20199;-32
2023/01/28 04:14:17;;;;;;;13.93;10.63;;;5.60;99.90;;;;;;5065096;28;20608;-32
2023/01/28 04:16:44;;;;;;;13.47;10.40;;;5.60;99.90;;;;;;5062481;28;20227;-32
2023/01/28 04:19:14;;;;;;;14.00;10.87;;;5.60;99.90;;;;;;5047382;28;20716;-32
2023/01/28 04:21:44;;;;;;;15.57;11.73;;;5.60;99.90;;;;;;5053899;28;20196;-32
2023/01/28 04:24:14;;;;;;;14.73;11.40;;;5.60;99.90;;;;;;5045962;28;20220;-32
2023/01/28 04:26:41;;;;;;;15.67;11.20;;;5.60;99.90;;;;;;5059337;28;20211;-32
2023/01/28 04:29:14;;;;;;;13.80;11.60;;;5.60;99.90;;;;;;5063711;28;20199;-32
2023/01/28 04:31:41;;;;;;;14.27;11.30;;;5.60;99.90;;;;;;5066194;28;20686;-32
2023/01/28 04:34:08;;;;;;;14.83;11.50;;;5.60;99.90;;;;;;5066242;28;20203;-32
2023/01/28 04:36:36;;;;;;;14.20;10.67;;;5.50;99.90;;;;;;5063771;28;20281;-32
2023/01/28 04:39:05;;;;;;;15.03;11.13;;;5.60;99.90;;;;;;5065229;28;20188;-32
2023/01/28 04:41:32;;;;;;;13.63;11.70;;;5.60;99.90;;;;;;5064654;28;20261;-32
2023/01/28 04:44:02;;;;;;;13.20;10.37;;;5.50;99.90;;;;;;5066640;28;20216;-32
2023/01/28 04:46:31;;;;;;;13.37;10.93;;;5.50;99.90;;;;;;5065387;28;20755;-32
2023/01/28 04:49:02;;;;;;;13.70;11.20;;;5.60;99.90;;;;;;5062106;28;20311;-32
2023/01/28 04:51:29;;;;;;;13.27;10.63;;;5.60;99.90;;;;;;5064342;28;20306;-32
2023/01/28 04:53:59;;;;;;;13.37;11.10;;;5.60;99.90;;;;;;5066106;28;20203;-32
2023/01/28 04:56:26;;;;;;;15.43;11.87;;;5.60;99.90;;;;;;5062551;28;20226;-32
2023/01/28 04:58:56;;;;;;;13.83;10.93;;;5.60;99.90;;;;;;5040532;28;20222;-32
2023/01/28 05:01:23;;;;;;;15.13;12.17;;;5.60;99.90;;;;;;5064170;28;20239;-32
2023/01/28 05:03:53;;;;;;;14.63;11.40;;;5.60;99.90;;;;;;5066000;28;20208;-32
2023/01/28 05:06:20;;;;;;;15.63;11.27;;;5.60;99.90;;;;;;5064217;28;20230;-32
2023/01/28 05:08:52;;;;;;;15.90;12.17;;;5.60;99.90;;;;;;5064468;28;20195;-32
2023/01/28 05:11:19;;;;;;;14.33;10.83;;;5.70;99.90;;;;;;5064197;28;20681;-32
2023/01/28 05:13:47;;;;;;;14.27;11.80;;;5.70;99.90;;;;;;5065627;28;20204;-32
2023/01/28 05:16:16;;;;;;;15.93;12.00;;;5.70;99.90;;;;;;5047534;28;20195;-32
2023/01/28 05:18:46;;;;;;;14.43;11.13;;;5.70;99.90;;;;;;5065592;28;20700;-32
2023/01/28 05:21:16;;;;;;;16.10;11.53;;;5.70;99.90;;;;;;5060981;28;20207;-32
2023/01/28 05:23:46;;;;;;;14.17;11.17;;;5.70;99.90;;;;;;5063662;28;20624;-32
2023/01/28 05:26:13;;;;;;;16.13;12.40;;;5.70;99.90;;;;;;5064998;28;20223;-32
2023/01/28 05:28:40;;;;;;;15.53;11.27;;;5.70;99.90;;;;;;5065083;28;20215;-32
2023/01/28 05:31:10;;;;;;;14.10;11.13;;;5.70;99.90;;;;;;5062281;28;20740;-32
2023/01/28 05:33:40;;;;;;;14.60;11.73;;;5.70;99.90;;;;;;5064624;28;20270;-32
2023/01/28 05:36:14;;;;;;;14.37;11.43;;;5.70;99.90;;;;;;5064583;28;20196;-32
2023/01/28 05:38:46;;;;;;;14.70;11.47;;;5.70;99.90;;;;;;5064307;28;20207;-32
2023/01/28 05:41:16;;;;;;;15.70;12.50;;;5.70;99.90;;;;;;5063423;28;20239;-32
2023/01/28 05:43:43;;;;;;;15.00;11.50;;;5.70;99.90;;;;;;5063971;28;20501;-32
2023/01/28 05:46:13;;;;;;;15.20;12.30;;;5.70;99.90;;;;;;5063613;28;20230;-32
2023/01/28 05:48:47;;;;;;;15.87;11.97;;;5.70;99.90;;;;;;5065519;28;20188;-32
2023/01/28 05:51:16;;;;;;;14.17;11.23;;;5.70;99.90;;;;;;5059277;28;20202;-32
2023/01/28 05:53:46;;;;;;;14.50;10.87;;;5.70;99.90;;;;;;5063533;28;20230;-32
2023/01/28 05:56:15;;;;;;;15.17;11.40;;;5.60;99.90;;;;;;5063865;28;20207;-32
2023/01/28 05:58:43;;;;;;;14.57;12.13;;;5.60;99.90;;;;;;5064125;28;20238;-32
2023/01/28 06:01:12;;;;;;;14.77;11.67;;;5.50;99.90;;;;;;5057750;28;20207;-32
2023/01/28 06:03:42;;;;;;;13.73;11.10;;;5.50;99.90;;;;;;5057003;28;20219;-32
2023/01/28 06:06:11;;;;;;;15.47;12.20;;;5.50;99.90;;;;;;5059338;28;20646;-32
2023/01/28 06:08:45;;;;;;;16.13;11.07;;;5.50;99.90;;;;;;5060201;28;20203;-32
2023/01/28 06:11:15;;;;;;;13.93;11.40;;;5.50;99.90;;;;;;5042082;28;20698;-32
2023/01/28 06:13:43;;;;;;;13.93;11.20;;;5.50;99.90;;;;;;5047163;28;20208;-32
2023/01/28 06:16:12;;;;;;;14.30;11.40;;;5.40;99.90;;;;;;5063502;28;20289;-32
2023/01/28 06:18:43;;;;;;;12.50;10.57;;;5.40;99.90;;;;;;5052285;28;20702;-32
2023/01/28 06:21:13;;;;;;;12.37;10.53;;;5.50;99.90;;;;;;5076808;28;20222;-32
2023/01/28 06:23:42;;;;;;;14.17;11.13;;;5.50;99.90;;;;;;5048264;28;20231;-32
2023/01/28 06:26:10;;;;;;;13.87;10.87;;;5.40;99.90;;;;;;5047855;28;20220;-32
2023/01/28 06:28:39;;;;;;;13.80;11.00;;;5.40;99.90;;;;;;5057252;28;20200;-32
2023/01/28 06:31:06;;;;;;;12.87;10.60;;;5.30;99.90;;;;;;5062569;28;20212;-32
2023/01/28 06:33:34;;;;;;;13.27;10.60;;;5.30;99.90;;;;;;5057125;28;20317;-32
2023/01/28 06:36:05;;;;;;;13.30;10.10;;;5.20;99.90;;;;;;5061050;28;20206;-32
2023/01/28 06:38:37;;;;;;;13.87;10.10;;;5.20;99.90;;;;;;5054822;28;20287;-32
2023/01/28 06:41:04;;;;;;;14.67;10.70;;;5.20;99.90;;;;;;5054177;28;20549;-32
2023/01/28 06:43:34;;;;;;;12.57;10.37;;;5.20;99.90;;;;;;5048458;28;20299;-32
2023/01/28 06:46:06;;;;;;;13.60;10.70;;;5.10;99.90;;;;;;5056653;28;20645;-32
2023/01/28 06:48:35;;;;;;;12.70;10.63;;;5.10;99.90;;;;;;5066835;28;20215;-33
2023/01/28 06:51:02;;;;;;;14.47;11.07;;;5.10;99.90;;;;;;5065550;28;20211;-32
2023/01/28 06:53:30;;;;;;;13.77;10.77;;;5.10;99.90;;;;;;5065816;28;20239;-32
2023/01/28 06:56:02;;;;;;;14.63;10.93;;;5.20;99.90;;;;;;5083595;28;20739;-33
2023/01/28 06:58:29;;;;;;;12.80;10.57;;;5.10;99.90;;;;;;5068094;28;20499;-32
2023/01/28 07:00:59;;;;;;;14.30;9.80;;;5.10;99.90;;;;;;5067950;28;20215;-32
2023/01/28 07:03:28;;;;;;;12.20;10.07;;;5.10;99.90;;;;;;5065893;28;20257;-32
2023/01/28 07:05:56;;;;;;;13.30;10.50;;;5.00;99.90;;;;;;5065200;28;20469;-32
2023/01/28 07:08:25;;;;;;;13.40;10.60;;;4.90;99.90;;;;;;5068276;28;20204;-32
2023/01/28 07:10:52;;;;;;;12.50;9.97;;;4.90;99.90;;;;;;5068336;28;20227;-32
2023/01/28 07:13:24;;;;;;;12.03;10.33;;;4.90;99.90;;;;;;5082994;28;20208;-32
2023/01/28 07:15:51;;;;;;;13.50;10.50;;;5.00;99.90;;;;;;5063630;28;20257;-32
2023/01/28 07:18:19;;;;;;;13.47;10.63;;;4.90;99.90;;;;;;5054859;28;20208;-31
2023/01/28 07:20:48;;;;;;;12.87;9.90;;;4.90;99.90;;;;;;5054473;28;20651;-31
2023/01/28 07:23:15;;;;;;;11.80;9.47;;;4.90;99.90;;;;;;5065060;28;20256;-31
2023/01/28 07:25:47;;;;;;;12.50;10.03;;;4.90;99.90;;;;;;5065548;28;20211;-32
2023/01/28 07:28:20;;;;;;;12.93;10.63;;;4.90;99.90;;;;;;5067310;28;20188;-32
2023/01/28 07:30:48;;;;;;;11.90;9.97;;;4.90;99.90;;;;;;5062743;28;20649;-32
2023/01/28 07:33:19;;;;;;;13.07;10.57;;;4.90;99.90;;;;;;5061688;28;20665;-31
2023/01/28 07:35:47;;;;;;;13.10;9.37;;;4.90;99.90;;;;;;5062273;28;20196;-32
2023/01/28 07:38:16;;;;;;;14.23;10.33;;;4.90;99.90;;;;;;5066827;28;20218;-31
2023/01/28 07:40:44;;;;;;;14.20;10.43;;;4.90;99.90;;;;;;5062310;28;20489;-32
2023/01/28 07:43:13;;;;;;;12.90;10.53;;;4.90;99.90;;;;;;5065970;28;20239;-31
2023/01/28 07:45:41;;;;;;;13.40;10.53;;;4.80;99.90;;;;;;5063142;28;20947;-32
2023/01/28 07:48:11;;;;;;;13.03;10.53;;;4.80;99.90;;;;;;5063861;28;20226;-31
2023/01/28 07:50:39;;;;;;;12.87;9.70;;;4.80;99.90;;;;;;5062520;28;20212;-32
2023/01/28 07:53:10;;;;;;;14.20;10.17;;;4.80;99.90;;;;;;5058170;28;20768;-31
2023/01/28 07:55:40;;;;;;;13.03;10.07;;;4.80;99.90;;;;;;5061282;28;20204;-32
2023/01/28 07:58:11;;;;;;;14.40;10.20;;;4.80;99.90;;;;;;5055863;28;20219;-31
2023/01/28 08:00:40;;;;;;;12.90;10.00;;;4.80;99.90;;;;;;5054186;28;20215;-31
2023/01/28 08:03:14;;;;;;;13.50;9.53;;;4.70;99.90;;;;;;5062814;28;20212;-31
2023/01/28 08:05:48;;;;;;;12.43;9.77;;;4.70;99.90;;;;;;5061259;28;20250;-32
2023/01/28 08:08:16;;;;;;;12.33;9.47;;;4.70;99.90;;;;;;5061746;28;20206;-32
2023/01/28 08:10:44;;;;;;;11.80;9.73;;;4.70;99.90;;;;;;5065511;28;20249;-32
2023/01/28 08:13:15;;;;;;;13.33;10.00;;;4.70;99.90;;;;;;5063507;28;20195;-32
2023/01/28 08:15:47;;;;;;;12.23;10.03;;;4.80;99.90;;;;;;5062402;28;20207;-32
2023/01/28 08:18:16;;;;;;;16.27;9.93;;;4.80;99.90;;;;;;5049303;28;20205;-31
2023/01/28 08:20:46;;;;;;;12.57;9.97;;;4.80;99.90;;;;;;5049856;28;20203;-32
2023/01/28 08:23:16;;;;;;;13.10;9.80;;;4.80;99.90;;;;;;5065255;28;20667;-32
2023/01/28 08:25:47;;;;;;;16.07;10.10;;;4.70;99.90;;;;;;5045654;28;20701;-31
2023/01/28 08:28:16;;;;;;;11.80;9.70;;;4.70;99.90;;;;;;5057960;28;20688;-32
2023/01/28 08:30:46;;;;;;;12.57;10.07;;;4.70;99.90;;;;;;5061537;28;20234;-31
2023/01/28 08:33:17;;;;;;;12.30;9.93;;;4.80;99.90;;;;;;5053468;28;20210;-32
2023/01/28 08:35:47;;;;;;;12.67;9.60;;;4.70;99.90;;;;;;5062968;28;20216;-32
2023/01/28 08:38:16;;;;;;;12.83;9.87;;;4.80;99.90;;;;;;5065048;28;20203;-32
2023/01/28 08:40:49;;;;;;;12.30;9.30;;;4.80;99.90;;;;;;5062552;28;20200;-32
2023/01/28 08:43:22;;;;;;;15.10;10.23;;;4.80;99.90;;;;;;5062468;28;20610;-32
2023/01/28 08:45:54;;;;;;;13.10;10.17;;;4.90;99.90;;;;;;5061507;28;20842;-31
2023/01/28 08:48:23;;;;;;;11.27;9.40;;;4.90;99.90;;;;;;5079062;28;20200;-32
2023/01/28 08:50:57;;;;;;;12.70;9.77;;;4.90;99.90;;;;;;5058238;28;20670;-31
2023/01/28 08:53:31;;;;;;;12.67;10.33;;;4.90;99.90;;;;;;5055500;27;20633;-31
2023/01/28 08:56:00;;;;;;;12.43;10.03;;;4.90;99.90;;;;;;5057768;28;20231;-32
2023/01/28 08:58:34;;;;;;;12.53;10.03;;;4.90;99.90;;;;;;5073658;28;20492;-32
2023/01/28 09:01:09;;;;;;;12.60;10.47;;;4.90;99.90;;;;;;5075859;28;20258;-31
2023/01/28 09:03:39;;;;;;;15.43;10.27;;;4.90;99.90;;;;;;5050743;28;20277;-32
2023/01/28 09:06:06;;;;;;;14.13;11.23;;;4.80;99.90;;;;;;5042435;28;20196;-32
2023/01/28 09:08:33;;;;;;;16.57;10.57;;;4.80;99.90;;;;;;5046131;28;20270;-32
2023/01/28 09:11:00;;;;;;;13.23;10.47;;;4.80;99.90;;;;;;5058278;28;20232;-31
2023/01/28 09:13:28;;;;;;;14.50;11.80;;;4.80;99.90;;;;;;5062733;28;20231;-32
2023/01/28 09:15:56;;;;;;;15.67;10.97;;;4.80;99.90;;;;;;5056684;28;20631;-32
2023/01/28 09:18:27;;;;;;;12.13;9.80;;;4.90;99.90;;;;;;5052729;28;20668;-32
2023/01/28 09:20:59;;;;;;;16.47;11.30;;;4.90;99.90;;;;;;5053419;28;20196;-32
2023/01/28 09:23:26;;;;;;;15.67;11.97;;;4.90;99.90;;;;;;5059946;28;20208;-31
2023/01/28 09:26:03;;;;;;;14.20;11.60;;;5.00;99.90;;;;;;5074093;28;20250;-32
2023/01/28 09:28:34;;;;;;;15.07;11.43;;;5.00;99.90;;;;;;5055001;28;20286;-31
2023/01/28 09:31:07;;;;;;;15.77;11.60;;;5.00;99.90;;;;;;5042825;28;20295;-32
2023/01/28 09:33:39;;;;;;;13.23;10.83;;;4.90;99.90;;;;;;5045745;28;20710;-32
2023/01/28 09:36:10;;;;;;;16.13;11.77;;;5.00;99.90;;;;;;5058390;28;20223;-31
2023/01/28 09:38:42;;;;;;;14.80;11.47;;;5.00;99.90;;;;;;5063801;28;20427;-32
2023/01/28 09:41:42;;;;;;;17.77;12.10;;;5.00;99.90;;;;;;5060342;28;20211;-32
2023/01/28 09:44:29;;;;;;;17.87;12.27;;;4.90;99.90;;;;;;5056166;28;20246;-32
2023/01/28 09:47:02;;;;;;;15.87;11.43;;;4.90;99.90;;;;;;5065613;28;20261;-32
2023/01/28 09:49:47;;;;;;;15.50;10.83;;;4.90;99.90;;;;;;5057086;28;20219;-32
2023/01/28 09:52:18;;;;;;;13.97;10.37;;;4.80;99.90;;;;;;5056667;28;20328;-33
2023/01/28 09:54:54;;;;;;;15.53;10.87;;;4.80;99.90;;;;;;5040774;28;20750;-32
2023/01/28 09:57:30;;;;;;;15.07;11.17;;;4.80;99.90;;;;;;5061030;28;20671;-32
2023/01/28 10:00:01;;;;;;;14.80;10.80;;;4.70;99.90;;;;;;5063376;28;20219;-31
2023/01/28 10:02:43;;;;;;;15.97;10.83;;;4.70;99.90;;;;;;5058572;28;21178;-32
2023/01/28 10:06:00;;;;;;;14.37;10.80;;;4.80;99.90;;;;;;5044376;28;20207;-32
2023/01/28 10:08:53;;;;;;;14.83;10.80;;;4.80;99.90;;;;;;4992301;28;21461;-32
2023/01/28 10:11:34;;;;;;;13.40;10.37;;;4.70;99.90;;;;;;5027586;28;20284;-32
2023/01/28 10:14:23;;;;;;;15.33;9.90;;;4.70;99.90;;;;;;5057771;28;20204;-32
2023/01/28 10:16:58;;;;;;;16.80;11.57;;;4.80;99.90;;;;;;5045220;28;20683;-32
2023/01/28 10:19:37;;;;;;;14.57;10.67;;;4.70;99.90;;;;;;5045476;28;20203;-32
2023/01/28 10:22:10;;;;;;;13.93;11.00;;;4.70;99.90;;;;;;5026463;28;20299;-32
2023/01/28 10:24:48;;;;;;;14.97;11.50;;;4.80;99.90;;;;;;5040668;28;20207;-31
2023/01/28 10:27:28;;;;;;;15.67;11.33;;;4.80;99.90;;;;;;5047431;28;20208;-32
2023/01/28 10:30:04;;;;;;;14.47;10.60;;;4.80;99.90;;;;;;5039529;28;20283;-32
2023/01/28 10:32:35;;;;;;;13.57;10.43;;;4.80;99.90;;;;;;5042033;28;20329;-32
2023/01/28 10:35:07;;;;;;;15.57;10.67;;;4.80;99.90;;;;;;5058901;28;20207;-31
2023/01/28 10:37:41;;;;;;;15.40;11.47;;;4.80;99.90;;;;;;5047255;28;20663;-32
2023/01/28 10:40:19;;;;;;;13.33;10.47;;;4.80;99.90;;;;;;5036609;28;20193;-32
2023/01/28 10:42:46;;;;;;;13.53;10.37;;;4.80;99.90;;;;;;5057918;28;20728;-32
2023/01/28 10:45:21;;;;;;;14.97;11.20;;;4.80;99.90;;;;;;5046224;28;20252;-32
2023/01/28 10:48:06;;;;;;;14.33;10.20;;;4.90;99.90;;;;;;5034597;28;20270;-32
2023/01/28 10:50:34;;;;;;;16.40;10.63;;;4.90;99.90;;;;;;5036677;28;20255;-32
2023/01/28 10:53:06;;;;;;;13.30;10.70;;;4.90;99.90;;;;;;5058683;28;20743;-32
2023/01/28 10:55:56;;;;;;;14.60;11.40;;;4.80;99.90;;;;;;5037246;28;20220;-32
2023/01/28 10:58:25;;;;;;;15.57;11.40;;;4.90;99.90;;;;;;5026759;28;20267;-31
2023/01/28 11:00:56;;;;;;;15.70;11.77;;;5.00;99.90;;;;;;5030129;28;20258;-32
2023/01/28 11:03:28;;;;;;;14.43;10.80;;;5.00;99.90;;;;;;5060408;28;20227;-32
2023/01/28 11:05:56;;;;;;;13.43;10.43;;;4.90;99.90;;;;;;5036450;28;20622;-32
2023/01/28 11:08:28;;;;;;;14.90;11.30;;;5.00;99.90;;;;;;5046879;28;20204;-32
2023/01/28 11:10:57;;;;;;;14.43;10.47;;;5.00;99.90;;;;;;5042403;28;20699;-32
2023/01/28 11:13:27;;;;;;;14.57;10.97;;;5.00;99.90;;;;;;5038288;28;20255;-32
2023/01/28 11:16:13;;;;;;;15.10;11.33;;;5.00;99.90;;;;;;5042566;28;20204;-32
2023/01/28 11:18:52;;;;;;;14.37;10.33;;;5.10;99.90;;;;;;5046077;28;20204;-32
2023/01/28 11:21:30;;;;;;;16.00;11.33;;;5.00;99.90;;;;;;5033983;28;20208;-32
2023/01/28 11:24:04;;;;;;;16.20;10.67;;;5.00;99.90;;;;;;5032858;28;20611;-31
2023/01/28 11:26:35;;;;;;;14.70;10.97;;;5.00;99.90;;;;;;5048202;28;20613;-32
2023/01/28 11:29:04;;;;;;;15.17;11.43;;;4.90;99.90;;;;;;5033993;28;20216;-32
2023/01/28 11:31:45;;;;;;;13.87;10.97;;;4.90;99.90;;;;;;5042371;28;20222;-32
2023/01/28 11:34:17;;;;;;;16.03;10.83;;;5.00;99.90;;;;;;5040261;28;20591;-32
2023/01/28 11:37:01;;;;;;;13.67;10.63;;;5.00;99.90;;;;;;5055165;28;20204;-32
2023/01/28 11:39:29;;;;;;;14.90;11.23;;;4.90;99.90;;;;;;5045406;28;20277;-32
2023/01/28 11:42:18;;;;;;;15.43;10.97;;;4.90;99.90;;;;;;5043172;28;20655;-32
2023/01/28 11:44:49;;;;;;;15.83;10.90;;;4.90;99.90;;;;;;5044364;28;20208;-32
2023/01/28 11:47:32;;;;;;;14.90;10.50;;;4.90;99.90;;;;;;5052713;28;20279;-32
2023/01/28 11:50:21;;;;;;;16.30;10.70;;;4.80;99.90;;;;;;5035038;28;20308;-32
2023/01/28 11:53:05;;;;;;;14.83;10.80;;;4.80;99.90;;;;;;5032210;28;22098;-32
2023/01/28 11:56:32;;;;;;;15.83;10.60;;;4.80;99.90;;;;;;5028691;28;20646;-32
2023/01/28 11:59:36;;;;;;;14.60;11.20;;;4.80;99.90;;;;;;5013434;28;20558;-32
2023/01/28 12:02:38;;;;;;;14.10;11.27;;;4.90;99.90;;;;;;5049820;28;20855;-32
2023/01/28 12:05:14;;;;;;;12.53;9.80;;;4.90;99.90;;;;;;5041733;28;20258;-32
2023/01/28 12:07:54;;;;;;;16.23;11.63;;;5.00;99.90;;;;;;5042813;28;20224;-32
2023/01/28 12:10:45;;;;;;;15.60;11.73;;;5.10;99.90;;;;;;5058295;28;20208;-32
2023/01/28 12:13:21;;;;;;;16.97;12.47;;;5.10;99.90;;;;;;5039363;28;20726;-32
2023/01/28 12:15:56;;;;;;;16.10;12.47;;;5.10;99.90;;;;;;5043919;28;20205;-32
2023/01/28 12:18:57;;;;;;;17.10;12.67;;;5.10;99.90;;;;;;5039702;28;20295;-32
2023/01/28 12:21:48;;;;;;;16.77;13.13;;;5.10;99.90;;;;;;5058117;28;20228;-32
2023/01/28 12:24:34;;;;;;;16.63;12.30;;;5.00;99.90;;;;;;5043292;28;20201;-32
2023/01/28 12:27:03;;;;;;;15.83;12.23;;;5.10;99.90;;;;;;5038814;28;20230;-32
2023/01/28 12:29:58;;;;;;;18.40;13.10;;;5.10;99.90;;;;;;5040778;28;20266;-33
2023/01/28 12:32:44;;;;;;;16.40;12.37;;;5.10;99.90;;;;;;5037270;28;20233;-32
2023/01/28 12:35:34;;;;;;;17.53;13.87;;;5.20;99.90;;;;;;5041829;28;20765;-32
2023/01/28 12:38:22;;;;;;;18.00;12.73;;;5.20;99.90;;;;;;5059229;28;20741;-32
2023/01/28 12:41:06;;;;;;;17.07;13.13;;;5.10;99.90;;;;;;5025437;28;20267;-32
2023/01/28 12:44:12;;;;;;;16.33;12.73;;;5.20;99.90;;;;;;5042666;28;20768;-32
2023/01/28 12:47:00;;;;;;;19.43;13.17;;;5.30;99.90;;;;;;5037828;28;20212;-32
2023/01/28 12:49:42;;;;;;;16.60;12.90;;;5.20;99.90;;;;;;5044794;28;20220;-32
2023/01/28 12:52:33;;;;;;;18.83;13.07;;;5.30;99.90;;;;;;5038221;28;20260;-32
2023/01/28 12:55:05;;;;;;;16.30;12.57;;;5.30;99.90;;;;;;5040919;28;20667;-32
2023/01/28 12:57:37;;;;;;;16.23;12.67;;;5.30;99.90;;;;;;5036521;28;20239;-32
2023/01/28 13:00:33;;;;;;;15.77;12.07;;;5.40;99.90;;;;;;5024034;28;20344;-32
2023/01/28 13:03:13;;;;;;;14.97;12.07;;;5.50;99.90;;;;;;5041829;28;20753;-31
2023/01/28 13:05:50;;;;;;;14.87;12.13;;;5.50;99.90;;;;;;5038153;28;20597;-32
2023/01/28 13:08:27;;;;;;;15.97;12.43;;;5.60;99.90;;;;;;5053644;28;20637;-32
2023/01/28 13:11:00;;;;;;;14.73;11.73;;;5.60;99.90;;;;;;5057137;28;20211;-32
2023/01/28 13:13:41;;;;;;;14.53;11.13;;;5.70;99.90;;;;;;5042208;28;20220;-33
2023/01/28 13:16:12;;;;;;;13.87;11.03;;;5.70;99.90;;;;;;5042120;28;20201;-32
2023/01/28 13:18:39;;;;;;;14.97;11.87;;;5.80;99.90;;;;;;5056208;28;20701;-32
2023/01/28 13:21:24;;;;;;;14.67;11.10;;;5.80;99.90;;;;;;5060347;28;20220;-32
2023/01/28 13:24:01;;;;;;;15.20;11.70;;;5.80;99.90;;;;;;5043347;28;20710;-32
2023/01/28 13:26:38;;;;;;;13.70;11.27;;;5.80;99.90;;;;;;5045751;28;20204;-32
2023/01/28 13:29:26;;;;;;;14.73;11.70;;;5.80;99.90;;;;;;5040176;28;20215;-32
2023/01/28 13:32:01;;;;;;;16.00;12.23;;;5.90;99.90;;;;;;5034748;28;20395;-32
2023/01/28 13:34:35;;;;;;;14.83;12.03;;;5.80;99.90;;;;;;5036679;28;20266;-32
2023/01/28 13:37:18;;;;;;;17.17;11.93;;;5.80;99.90;;;;;;5039989;28;20219;-32
2023/01/28 13:39:51;;;;;;;14.47;12.10;;;5.90;99.90;;;;;;5026430;28;20193;-32
2023/01/28 13:42:27;;;;;;;15.03;11.63;;;5.80;99.90;;;;;;5047662;28;20701;-31
2023/01/28 13:45:07;;;;;;;15.67;12.20;;;5.80;99.90;;;;;;5029580;28;20278;-32
2023/01/28 13:47:36;;;;;;;14.37;11.50;;;5.80;99.90;;;;;;5032786;28;20302;-32
2023/01/28 13:50:17;;;;;;;13.70;11.63;;;5.80;99.90;;;;;;5056476;28;20208;-32
2023/01/28 13:52:56;;;;;;;15.23;11.87;;;5.90;99.90;;;;;;5048442;28;20235;-32